sensor_id;sensor_type;location;lat;lon;timestamp;P1;durP1;ratioP1;P2;durP2;ratioP2
73557;SDS011;61829;53.286;10.434;2023-04-07T00:01:34;13.18;;;6.43;;
73557;SDS011;61829;53.286;10.434;2023-04-07T00:04:00;8.93;;;5.53;;
73557;SDS011;61829;53.286;10.434;2023-04-07T00:06:26;11.48;;;6.15;;
73557;SDS011;61829;53.286;10.434;2023-04-07T00:08:53;10.02;;;5.93;;
73557;SDS011;61829;53.286;10.434;2023-04-07T00:11:20;11.15;;;6.80;;
73557;SDS011;61829;53.286;10.434;2023-04-07T00:13:46;10.57;;;5.97;;
73557;SDS011;61829;53.286;10.434;2023-04-07T00:16:13;10.98;;;6.35;;
73557;SDS011;61829;53.286;10.434;2023-04-07T00:18:39;9.68;;;5.78;;
73557;SDS011;61829;53.286;10.434;2023-04-07T00:21:05;8.23;;;5.68;;
73557;SDS011;61829;53.286;10.434;2023-04-07T00:23:30;9.45;;;5.53;;
73557;SDS011;61829;53.286;10.434;2023-04-07T00:25:59;8.90;;;5.78;;
73557;SDS011;61829;53.286;10.434;2023-04-07T00:28:25;12.38;;;6.47;;
73557;SDS011;61829;53.286;10.434;2023-04-07T00:30:51;10.95;;;6.15;;
73557;SDS011;61829;53.286;10.434;2023-04-07T00:33:20;10.00;;;5.97;;
73557;SDS011;61829;53.286;10.434;2023-04-07T00:35:46;11.23;;;5.80;;
73557;SDS011;61829;53.286;10.434;2023-04-07T00:38:14;10.43;;;5.78;;
73557;SDS011;61829;53.286;10.434;2023-04-07T00:40:41;10.15;;;5.93;;
73557;SDS011;61829;53.286;10.434;2023-04-07T00:43:06;9.50;;;5.95;;
73557;SDS011;61829;53.286;10.434;2023-04-07T00:45:32;11.27;;;6.00;;
73557;SDS011;61829;53.286;10.434;2023-04-07T00:47:58;9.63;;;6.00;;
73557;SDS011;61829;53.286;10.434;2023-04-07T00:50:24;10.40;;;6.15;;
73557;SDS011;61829;53.286;10.434;2023-04-07T00:52:50;10.98;;;6.22;;
73557;SDS011;61829;53.286;10.434;2023-04-07T00:55:16;10.68;;;5.85;;
73557;SDS011;61829;53.286;10.434;2023-04-07T00:57:42;8.60;;;5.40;;
73557;SDS011;61829;53.286;10.434;2023-04-07T01:00:08;8.07;;;5.53;;
73557;SDS011;61829;53.286;10.434;2023-04-07T01:08:00;8.07;;;5.32;;
73557;SDS011;61829;53.286;10.434;2023-04-07T01:10:36;9.05;;;4.97;;
73557;SDS011;61829;53.286;10.434;2023-04-07T01:13:07;9.45;;;5.53;;
73557;SDS011;61829;53.286;10.434;2023-04-07T01:15:47;9.32;;;5.30;;
73557;SDS011;61829;53.286;10.434;2023-04-07T01:18:21;7.93;;;5.35;;
73557;SDS011;61829;53.286;10.434;2023-04-07T01:20:51;9.38;;;5.38;;
73557;SDS011;61829;53.286;10.434;2023-04-07T01:23:26;9.32;;;5.40;;
73557;SDS011;61829;53.286;10.434;2023-04-07T01:31:44;7.70;;;5.38;;
73557;SDS011;61829;53.286;10.434;2023-04-07T01:34:12;6.57;;;4.85;;
73557;SDS011;61829;53.286;10.434;2023-04-07T01:36:40;8.10;;;4.97;;
73557;SDS011;61829;53.286;10.434;2023-04-07T01:39:07;8.32;;;4.78;;
73557;SDS011;61829;53.286;10.434;2023-04-07T01:41:34;9.68;;;5.05;;
73557;SDS011;61829;53.286;10.434;2023-04-07T01:44:02;7.90;;;5.38;;
73557;SDS011;61829;53.286;10.434;2023-04-07T01:46:31;7.57;;;5.30;;
73557;SDS011;61829;53.286;10.434;2023-04-07T01:48:57;7.85;;;4.75;;
73557;SDS011;61829;53.286;10.434;2023-04-07T01:51:23;8.80;;;5.65;;
73557;SDS011;61829;53.286;10.434;2023-04-07T01:53:52;9.73;;;5.68;;
73557;SDS011;61829;53.286;10.434;2023-04-07T01:56:19;8.30;;;5.28;;
73557;SDS011;61829;53.286;10.434;2023-04-07T01:58:45;8.73;;;5.53;;
73557;SDS011;61829;53.286;10.434;2023-04-07T02:01:12;8.07;;;4.90;;
73557;SDS011;61829;53.286;10.434;2023-04-07T02:06:26;8.20;;;4.93;;
73557;SDS011;61829;53.286;10.434;2023-04-07T02:08:58;8.43;;;5.00;;
73557;SDS011;61829;53.286;10.434;2023-04-07T02:11:27;7.40;;;4.90;;
73557;SDS011;61829;53.286;10.434;2023-04-07T02:13:56;8.07;;;4.95;;
73557;SDS011;61829;53.286;10.434;2023-04-07T02:16:27;9.35;;;5.40;;
73557;SDS011;61829;53.286;10.434;2023-04-07T02:18:56;9.65;;;5.65;;
73557;SDS011;61829;53.286;10.434;2023-04-07T02:23:50;8.98;;;4.47;;
73557;SDS011;61829;53.286;10.434;2023-04-07T02:26:16;8.13;;;5.13;;
73557;SDS011;61829;53.286;10.434;2023-04-07T02:28:42;8.50;;;5.28;;
73557;SDS011;61829;53.286;10.434;2023-04-07T02:31:08;7.13;;;5.05;;
73557;SDS011;61829;53.286;10.434;2023-04-07T02:33:34;8.88;;;5.28;;
73557;SDS011;61829;53.286;10.434;2023-04-07T02:36:00;9.73;;;5.10;;
73557;SDS011;61829;53.286;10.434;2023-04-07T02:38:26;8.63;;;5.22;;
73557;SDS011;61829;53.286;10.434;2023-04-07T02:40:52;8.13;;;5.10;;
73557;SDS011;61829;53.286;10.434;2023-04-07T02:43:19;7.13;;;4.53;;
73557;SDS011;61829;53.286;10.434;2023-04-07T02:45:46;8.65;;;5.18;;
73557;SDS011;61829;53.286;10.434;2023-04-07T02:48:12;8.48;;;4.90;;
73557;SDS011;61829;53.286;10.434;2023-04-07T02:50:38;8.63;;;4.90;;
73557;SDS011;61829;53.286;10.434;2023-04-07T02:53:06;7.63;;;4.97;;
73557;SDS011;61829;53.286;10.434;2023-04-07T02:55:32;9.50;;;4.75;;
73557;SDS011;61829;53.286;10.434;2023-04-07T02:57:57;7.50;;;4.80;;
73557;SDS011;61829;53.286;10.434;2023-04-07T03:00:24;6.43;;;4.25;;
73557;SDS011;61829;53.286;10.434;2023-04-07T03:02:50;7.43;;;4.65;;
73557;SDS011;61829;53.286;10.434;2023-04-07T03:05:16;9.15;;;5.13;;
73557;SDS011;61829;53.286;10.434;2023-04-07T03:07:42;9.80;;;4.53;;
73557;SDS011;61829;53.286;10.434;2023-04-07T03:10:08;8.90;;;4.75;;
73557;SDS011;61829;53.286;10.434;2023-04-07T03:12:34;8.10;;;4.95;;
73557;SDS011;61829;53.286;10.434;2023-04-07T03:15:00;9.45;;;4.72;;
73557;SDS011;61829;53.286;10.434;2023-04-07T03:17:25;7.47;;;4.80;;
73557;SDS011;61829;53.286;10.434;2023-04-07T03:19:51;8.48;;;5.07;;
73557;SDS011;61829;53.286;10.434;2023-04-07T03:22:17;8.07;;;4.57;;
73557;SDS011;61829;53.286;10.434;2023-04-07T03:24:43;8.43;;;4.75;;
73557;SDS011;61829;53.286;10.434;2023-04-07T03:27:09;8.30;;;4.93;;
73557;SDS011;61829;53.286;10.434;2023-04-07T03:29:35;6.80;;;4.70;;
73557;SDS011;61829;53.286;10.434;2023-04-07T03:32:01;8.18;;;4.88;;
73557;SDS011;61829;53.286;10.434;2023-04-07T03:34:27;7.97;;;4.53;;
73557;SDS011;61829;53.286;10.434;2023-04-07T03:36:53;11.68;;;5.00;;
73557;SDS011;61829;53.286;10.434;2023-04-07T03:39:18;9.13;;;4.35;;
73557;SDS011;61829;53.286;10.434;2023-04-07T03:41:44;7.85;;;4.40;;
73557;SDS011;61829;53.286;10.434;2023-04-07T03:44:10;7.45;;;4.30;;
73557;SDS011;61829;53.286;10.434;2023-04-07T03:46:36;9.00;;;4.47;;
73557;SDS011;61829;53.286;10.434;2023-04-07T03:49:02;7.15;;;4.15;;
73557;SDS011;61829;53.286;10.434;2023-04-07T03:51:28;6.07;;;4.30;;
73557;SDS011;61829;53.286;10.434;2023-04-07T03:53:54;6.95;;;3.85;;
73557;SDS011;61829;53.286;10.434;2023-04-07T03:56:20;8.20;;;4.43;;
73557;SDS011;61829;53.286;10.434;2023-04-07T04:01:13;8.77;;;4.10;;
73557;SDS011;61829;53.286;10.434;2023-04-07T04:03:39;6.57;;;4.20;;
73557;SDS011;61829;53.286;10.434;2023-04-07T04:06:05;8.00;;;4.30;;
73557;SDS011;61829;53.286;10.434;2023-04-07T04:08:31;9.35;;;4.30;;
73557;SDS011;61829;53.286;10.434;2023-04-07T04:10:57;7.93;;;3.80;;
73557;SDS011;61829;53.286;10.434;2023-04-07T04:13:23;9.70;;;4.57;;
73557;SDS011;61829;53.286;10.434;2023-04-07T04:15:48;7.85;;;4.82;;
73557;SDS011;61829;53.286;10.434;2023-04-07T04:18:14;6.43;;;3.42;;
73557;SDS011;61829;53.286;10.434;2023-04-07T04:20:40;6.38;;;3.88;;
73557;SDS011;61829;53.286;10.434;2023-04-07T04:23:06;8.77;;;4.07;;
73557;SDS011;61829;53.286;10.434;2023-04-07T04:25:32;7.60;;;3.85;;
73557;SDS011;61829;53.286;10.434;2023-04-07T04:27:58;6.85;;;3.60;;
73557;SDS011;61829;53.286;10.434;2023-04-07T04:30:24;6.97;;;4.35;;
73557;SDS011;61829;53.286;10.434;2023-04-07T04:32:49;7.03;;;3.78;;
73557;SDS011;61829;53.286;10.434;2023-04-07T04:35:15;6.90;;;4.03;;
73557;SDS011;61829;53.286;10.434;2023-04-07T04:37:41;9.10;;;4.60;;
73557;SDS011;61829;53.286;10.434;2023-04-07T04:40:07;7.63;;;4.13;;
73557;SDS011;61829;53.286;10.434;2023-04-07T04:42:35;10.05;;;4.22;;
73557;SDS011;61829;53.286;10.434;2023-04-07T04:45:00;8.32;;;4.50;;
73557;SDS011;61829;53.286;10.434;2023-04-07T04:47:26;7.70;;;4.47;;
73557;SDS011;61829;53.286;10.434;2023-04-07T04:49:52;7.40;;;4.68;;
73557;SDS011;61829;53.286;10.434;2023-04-07T04:52:19;7.72;;;4.93;;
73557;SDS011;61829;53.286;10.434;2023-04-07T04:54:49;7.80;;;4.50;;
73557;SDS011;61829;53.286;10.434;2023-04-07T04:57:15;9.52;;;4.65;;
73557;SDS011;61829;53.286;10.434;2023-04-07T04:59:40;6.80;;;4.13;;
73557;SDS011;61829;53.286;10.434;2023-04-07T05:02:07;7.38;;;3.95;;
73557;SDS011;61829;53.286;10.434;2023-04-07T05:04:32;8.15;;;4.28;;
73557;SDS011;61829;53.286;10.434;2023-04-07T05:06:59;6.75;;;4.28;;
73557;SDS011;61829;53.286;10.434;2023-04-07T05:09:25;9.45;;;4.32;;
73557;SDS011;61829;53.286;10.434;2023-04-07T05:11:52;6.65;;;4.47;;
73557;SDS011;61829;53.286;10.434;2023-04-07T05:14:18;7.40;;;3.92;;
73557;SDS011;61829;53.286;10.434;2023-04-07T05:16:46;7.93;;;4.45;;
73557;SDS011;61829;53.286;10.434;2023-04-07T05:19:13;8.02;;;4.20;;
73557;SDS011;61829;53.286;10.434;2023-04-07T05:21:40;8.35;;;4.20;;
73557;SDS011;61829;53.286;10.434;2023-04-07T05:24:05;6.35;;;3.65;;
73557;SDS011;61829;53.286;10.434;2023-04-07T05:26:31;9.10;;;4.38;;
73557;SDS011;61829;53.286;10.434;2023-04-07T05:28:57;7.72;;;4.60;;
73557;SDS011;61829;53.286;10.434;2023-04-07T05:31:24;10.18;;;4.57;;
73557;SDS011;61829;53.286;10.434;2023-04-07T05:33:50;8.18;;;4.78;;
73557;SDS011;61829;53.286;10.434;2023-04-07T05:36:16;7.45;;;4.47;;
73557;SDS011;61829;53.286;10.434;2023-04-07T05:38:42;8.35;;;4.20;;
73557;SDS011;61829;53.286;10.434;2023-04-07T05:41:08;9.43;;;4.32;;
73557;SDS011;61829;53.286;10.434;2023-04-07T05:43:34;11.48;;;5.40;;
73557;SDS011;61829;53.286;10.434;2023-04-07T05:46:01;8.02;;;4.63;;
73557;SDS011;61829;53.286;10.434;2023-04-07T05:48:26;5.90;;;3.80;;
73557;SDS011;61829;53.286;10.434;2023-04-07T05:50:53;8.30;;;4.43;;
73557;SDS011;61829;53.286;10.434;2023-04-07T05:53:18;6.80;;;3.90;;
73557;SDS011;61829;53.286;10.434;2023-04-07T05:55:44;9.82;;;4.47;;
73557;SDS011;61829;53.286;10.434;2023-04-07T05:58:10;8.50;;;4.47;;
73557;SDS011;61829;53.286;10.434;2023-04-07T06:00:36;8.00;;;4.07;;
73557;SDS011;61829;53.286;10.434;2023-04-07T06:03:02;8.35;;;4.90;;
73557;SDS011;61829;53.286;10.434;2023-04-07T06:05:28;8.88;;;4.50;;
73557;SDS011;61829;53.286;10.434;2023-04-07T06:07:54;7.90;;;4.25;;
73557;SDS011;61829;53.286;10.434;2023-04-07T06:10:20;8.65;;;4.43;;
73557;SDS011;61829;53.286;10.434;2023-04-07T06:12:49;7.95;;;4.57;;
73557;SDS011;61829;53.286;10.434;2023-04-07T06:15:15;6.85;;;4.32;;
73557;SDS011;61829;53.286;10.434;2023-04-07T06:17:41;8.20;;;4.18;;
73557;SDS011;61829;53.286;10.434;2023-04-07T06:22:34;8.05;;;4.80;;
73557;SDS011;61829;53.286;10.434;2023-04-07T06:25:00;8.13;;;4.78;;
73557;SDS011;61829;53.286;10.434;2023-04-07T06:27:26;8.23;;;4.70;;
73557;SDS011;61829;53.286;10.434;2023-04-07T06:29:53;6.38;;;4.45;;
73557;SDS011;61829;53.286;10.434;2023-04-07T06:32:18;7.13;;;4.18;;
73557;SDS011;61829;53.286;10.434;2023-04-07T06:34:44;8.80;;;4.88;;
73557;SDS011;61829;53.286;10.434;2023-04-07T06:37:10;7.53;;;4.13;;
73557;SDS011;61829;53.286;10.434;2023-04-07T06:39:36;8.32;;;4.30;;
73557;SDS011;61829;53.286;10.434;2023-04-07T06:42:02;9.02;;;4.47;;
73557;SDS011;61829;53.286;10.434;2023-04-07T06:44:29;8.73;;;4.32;;
73557;SDS011;61829;53.286;10.434;2023-04-07T06:46:55;7.35;;;4.65;;
73557;SDS011;61829;53.286;10.434;2023-04-07T06:49:21;7.30;;;4.35;;
73557;SDS011;61829;53.286;10.434;2023-04-07T06:51:47;7.43;;;4.30;;
73557;SDS011;61829;53.286;10.434;2023-04-07T06:54:13;12.65;;;4.63;;
73557;SDS011;61829;53.286;10.434;2023-04-07T06:56:40;6.57;;;4.00;;
73557;SDS011;61829;53.286;10.434;2023-04-07T06:59:09;7.75;;;4.38;;
73557;SDS011;61829;53.286;10.434;2023-04-07T07:01:36;9.48;;;4.20;;
73557;SDS011;61829;53.286;10.434;2023-04-07T07:04:02;7.38;;;4.43;;
73557;SDS011;61829;53.286;10.434;2023-04-07T07:06:30;8.27;;;4.05;;
73557;SDS011;61829;53.286;10.434;2023-04-07T07:08:56;7.15;;;4.38;;
73557;SDS011;61829;53.286;10.434;2023-04-07T07:11:22;7.50;;;4.22;;
73557;SDS011;61829;53.286;10.434;2023-04-07T07:13:48;6.97;;;4.05;;
73557;SDS011;61829;53.286;10.434;2023-04-07T07:16:13;8.63;;;4.70;;
73557;SDS011;61829;53.286;10.434;2023-04-07T07:18:39;7.35;;;4.65;;
73557;SDS011;61829;53.286;10.434;2023-04-07T07:21:05;7.07;;;4.68;;
73557;SDS011;61829;53.286;10.434;2023-04-07T07:23:31;7.55;;;4.45;;
73557;SDS011;61829;53.286;10.434;2023-04-07T07:25:58;9.40;;;4.30;;
73557;SDS011;61829;53.286;10.434;2023-04-07T07:28:24;7.63;;;4.57;;
73557;SDS011;61829;53.286;10.434;2023-04-07T07:30:50;8.00;;;4.65;;
73557;SDS011;61829;53.286;10.434;2023-04-07T07:33:16;7.72;;;4.63;;
73557;SDS011;61829;53.286;10.434;2023-04-07T07:35:42;7.45;;;4.45;;
73557;SDS011;61829;53.286;10.434;2023-04-07T07:38:08;7.72;;;4.90;;
73557;SDS011;61829;53.286;10.434;2023-04-07T07:40:34;7.35;;;4.43;;
73557;SDS011;61829;53.286;10.434;2023-04-07T07:43:00;8.02;;;4.65;;
73557;SDS011;61829;53.286;10.434;2023-04-07T07:45:25;9.60;;;4.50;;
73557;SDS011;61829;53.286;10.434;2023-04-07T07:47:52;8.35;;;4.53;;
73557;SDS011;61829;53.286;10.434;2023-04-07T07:50:27;9.05;;;4.55;;
73557;SDS011;61829;53.286;10.434;2023-04-07T07:52:53;9.75;;;5.15;;
73557;SDS011;61829;53.286;10.434;2023-04-07T07:55:19;7.28;;;4.25;;
73557;SDS011;61829;53.286;10.434;2023-04-07T07:57:45;8.23;;;4.85;;
73557;SDS011;61829;53.286;10.434;2023-04-07T08:00:11;8.25;;;3.80;;
73557;SDS011;61829;53.286;10.434;2023-04-07T08:02:40;7.03;;;4.22;;
73557;SDS011;61829;53.286;10.434;2023-04-07T08:05:06;7.70;;;4.68;;
73557;SDS011;61829;53.286;10.434;2023-04-07T08:07:33;7.85;;;4.35;;
73557;SDS011;61829;53.286;10.434;2023-04-07T08:12:57;7.35;;;4.80;;
73557;SDS011;61829;53.286;10.434;2023-04-07T08:17:48;7.40;;;4.60;;
73557;SDS011;61829;53.286;10.434;2023-04-07T08:20:14;8.55;;;4.75;;
73557;SDS011;61829;53.286;10.434;2023-04-07T08:22:42;8.50;;;4.57;;
73557;SDS011;61829;53.286;10.434;2023-04-07T08:25:07;10.02;;;4.32;;
73557;SDS011;61829;53.286;10.434;2023-04-07T08:27:33;7.90;;;4.50;;
73557;SDS011;61829;53.286;10.434;2023-04-07T08:30:00;10.05;;;5.18;;
73557;SDS011;61829;53.286;10.434;2023-04-07T08:32:39;7.65;;;4.50;;
73557;SDS011;61829;53.286;10.434;2023-04-07T08:35:06;8.98;;;4.57;;
73557;SDS011;61829;53.286;10.434;2023-04-07T08:37:33;10.00;;;4.93;;
73557;SDS011;61829;53.286;10.434;2023-04-07T08:40:00;9.93;;;4.40;;
73557;SDS011;61829;53.286;10.434;2023-04-07T08:42:27;7.95;;;4.72;;
73557;SDS011;61829;53.286;10.434;2023-04-07T08:44:55;7.88;;;4.55;;
73557;SDS011;61829;53.286;10.434;2023-04-07T08:47:26;8.57;;;4.30;;
73557;SDS011;61829;53.286;10.434;2023-04-07T08:49:56;9.05;;;4.65;;
73557;SDS011;61829;53.286;10.434;2023-04-07T08:52:26;10.43;;;4.63;;
73557;SDS011;61829;53.286;10.434;2023-04-07T08:54:59;8.38;;;4.70;;
73557;SDS011;61829;53.286;10.434;2023-04-07T08:57:31;8.82;;;4.60;;
73557;SDS011;61829;53.286;10.434;2023-04-07T08:59:58;8.30;;;4.35;;
73557;SDS011;61829;53.286;10.434;2023-04-07T09:02:32;8.27;;;4.43;;
73557;SDS011;61829;53.286;10.434;2023-04-07T09:05:04;8.30;;;4.80;;
73557;SDS011;61829;53.286;10.434;2023-04-07T09:07:33;8.60;;;4.57;;
73557;SDS011;61829;53.286;10.434;2023-04-07T09:10:00;6.20;;;4.03;;
73557;SDS011;61829;53.286;10.434;2023-04-07T09:12:27;7.50;;;3.88;;
73557;SDS011;61829;53.286;10.434;2023-04-07T09:14:54;9.15;;;4.68;;
73557;SDS011;61829;53.286;10.434;2023-04-07T09:17:20;7.78;;;4.38;;
73557;SDS011;61829;53.286;10.434;2023-04-07T09:19:46;8.57;;;4.63;;
73557;SDS011;61829;53.286;10.434;2023-04-07T09:22:13;8.05;;;4.40;;
73557;SDS011;61829;53.286;10.434;2023-04-07T09:24:40;7.85;;;4.47;;
73557;SDS011;61829;53.286;10.434;2023-04-07T09:27:13;7.18;;;4.15;;
73557;SDS011;61829;53.286;10.434;2023-04-07T09:29:42;6.00;;;3.38;;
73557;SDS011;61829;53.286;10.434;2023-04-07T09:32:09;7.72;;;3.65;;
73557;SDS011;61829;53.286;10.434;2023-04-07T09:34:36;5.57;;;3.20;;
73557;SDS011;61829;53.286;10.434;2023-04-07T09:39:53;10.63;;;4.45;;
73557;SDS011;61829;53.286;10.434;2023-04-07T09:42:20;7.97;;;4.28;;
73557;SDS011;61829;53.286;10.434;2023-04-07T09:44:46;5.75;;;3.70;;
73557;SDS011;61829;53.286;10.434;2023-04-07T09:47:12;6.10;;;4.00;;
73557;SDS011;61829;53.286;10.434;2023-04-07T09:49:48;9.30;;;4.20;;
73557;SDS011;61829;53.286;10.434;2023-04-07T09:52:20;5.95;;;3.88;;
73557;SDS011;61829;53.286;10.434;2023-04-07T09:54:47;6.68;;;3.85;;
73557;SDS011;61829;53.286;10.434;2023-04-07T09:57:14;8.13;;;3.75;;
73557;SDS011;61829;53.286;10.434;2023-04-07T09:59:41;5.57;;;4.10;;
73557;SDS011;61829;53.286;10.434;2023-04-07T10:02:09;7.43;;;3.72;;
73557;SDS011;61829;53.286;10.434;2023-04-07T10:04:36;6.32;;;3.80;;
73557;SDS011;61829;53.286;10.434;2023-04-07T10:07:03;7.97;;;4.22;;
73557;SDS011;61829;53.286;10.434;2023-04-07T10:09:29;6.50;;;3.60;;
73557;SDS011;61829;53.286;10.434;2023-04-07T10:11:56;7.82;;;3.92;;
73557;SDS011;61829;53.286;10.434;2023-04-07T10:14:30;6.13;;;3.83;;
73557;SDS011;61829;53.286;10.434;2023-04-07T10:16:58;6.72;;;4.20;;
73557;SDS011;61829;53.286;10.434;2023-04-07T10:19:27;8.18;;;3.58;;
73557;SDS011;61829;53.286;10.434;2023-04-07T10:21:56;7.00;;;4.13;;
73557;SDS011;61829;53.286;10.434;2023-04-07T10:26:55;6.50;;;4.18;;
73557;SDS011;61829;53.286;10.434;2023-04-07T10:29:24;6.85;;;4.30;;
73557;SDS011;61829;53.286;10.434;2023-04-07T10:31:52;7.85;;;4.40;;
73557;SDS011;61829;53.286;10.434;2023-04-07T10:34:50;6.72;;;4.03;;
73557;SDS011;61829;53.286;10.434;2023-04-07T10:37:20;7.68;;;4.45;;
73557;SDS011;61829;53.286;10.434;2023-04-07T10:39:47;9.07;;;4.55;;
73557;SDS011;61829;53.286;10.434;2023-04-07T10:45:02;8.23;;;4.45;;
73557;SDS011;61829;53.286;10.434;2023-04-07T10:50:26;7.78;;;4.10;;
73557;SDS011;61829;53.286;10.434;2023-04-07T10:53:05;6.95;;;3.78;;
73557;SDS011;61829;53.286;10.434;2023-04-07T10:55:44;6.47;;;3.67;;
73557;SDS011;61829;53.286;10.434;2023-04-07T10:58:24;7.28;;;3.80;;
73557;SDS011;61829;53.286;10.434;2023-04-07T11:03:35;6.65;;;3.70;;
73557;SDS011;61829;53.286;10.434;2023-04-07T11:08:59;6.40;;;3.33;;
73557;SDS011;61829;53.286;10.434;2023-04-07T11:11:34;5.55;;;3.33;;
73557;SDS011;61829;53.286;10.434;2023-04-07T11:14:03;7.07;;;3.08;;
73557;SDS011;61829;53.286;10.434;2023-04-07T11:16:36;7.10;;;3.60;;
73557;SDS011;61829;53.286;10.434;2023-04-07T11:19:03;4.85;;;3.05;;
73557;SDS011;61829;53.286;10.434;2023-04-07T11:21:30;5.68;;;3.42;;
73557;SDS011;61829;53.286;10.434;2023-04-07T11:23:56;6.63;;;3.15;;
73557;SDS011;61829;53.286;10.434;2023-04-07T11:26:23;5.47;;;3.45;;
73557;SDS011;61829;53.286;10.434;2023-04-07T11:28:54;7.32;;;3.47;;
73557;SDS011;61829;53.286;10.434;2023-04-07T11:31:29;5.28;;;3.10;;
73557;SDS011;61829;53.286;10.434;2023-04-07T11:33:57;6.38;;;3.70;;
73557;SDS011;61829;53.286;10.434;2023-04-07T11:36:31;5.03;;;2.42;;
73557;SDS011;61829;53.286;10.434;2023-04-07T11:38:59;6.72;;;3.30;;
73557;SDS011;61829;53.286;10.434;2023-04-07T11:41:29;5.43;;;3.22;;
73557;SDS011;61829;53.286;10.434;2023-04-07T11:44:06;7.40;;;3.35;;
73557;SDS011;61829;53.286;10.434;2023-04-07T11:46:32;5.00;;;2.92;;
73557;SDS011;61829;53.286;10.434;2023-04-07T11:49:11;5.50;;;3.30;;
73557;SDS011;61829;53.286;10.434;2023-04-07T11:51:38;6.15;;;3.30;;
73557;SDS011;61829;53.286;10.434;2023-04-07T11:54:05;5.07;;;3.20;;
73557;SDS011;61829;53.286;10.434;2023-04-07T11:56:40;4.97;;;2.90;;
73557;SDS011;61829;53.286;10.434;2023-04-07T11:59:20;4.97;;;2.70;;
73557;SDS011;61829;53.286;10.434;2023-04-07T12:01:47;5.57;;;3.00;;
73557;SDS011;61829;53.286;10.434;2023-04-07T12:04:15;4.47;;;2.60;;
73557;SDS011;61829;53.286;10.434;2023-04-07T12:06:41;5.45;;;3.25;;
73557;SDS011;61829;53.286;10.434;2023-04-07T12:09:30;4.95;;;2.63;;
73557;SDS011;61829;53.286;10.434;2023-04-07T12:12:01;6.03;;;3.53;;
73557;SDS011;61829;53.286;10.434;2023-04-07T12:14:32;4.78;;;2.75;;
73557;SDS011;61829;53.286;10.434;2023-04-07T12:16:59;4.93;;;2.70;;
73557;SDS011;61829;53.286;10.434;2023-04-07T12:19:28;5.85;;;3.13;;
73557;SDS011;61829;53.286;10.434;2023-04-07T12:21:57;5.22;;;3.03;;
73557;SDS011;61829;53.286;10.434;2023-04-07T12:24:23;5.45;;;2.80;;
73557;SDS011;61829;53.286;10.434;2023-04-07T12:26:49;5.15;;;2.70;;
73557;SDS011;61829;53.286;10.434;2023-04-07T12:29:15;4.82;;;2.78;;
73557;SDS011;61829;53.286;10.434;2023-04-07T12:31:41;8.90;;;3.33;;
73557;SDS011;61829;53.286;10.434;2023-04-07T12:34:08;6.13;;;3.00;;
73557;SDS011;61829;53.286;10.434;2023-04-07T12:36:34;5.55;;;2.67;;
73557;SDS011;61829;53.286;10.434;2023-04-07T12:39:00;5.38;;;2.80;;
73557;SDS011;61829;53.286;10.434;2023-04-07T12:41:26;3.72;;;2.20;;
73557;SDS011;61829;53.286;10.434;2023-04-07T12:43:52;5.30;;;2.55;;
73557;SDS011;61829;53.286;10.434;2023-04-07T12:46:18;5.60;;;2.95;;
73557;SDS011;61829;53.286;10.434;2023-04-07T12:48:44;5.50;;;2.70;;
73557;SDS011;61829;53.286;10.434;2023-04-07T12:51:12;6.28;;;2.90;;
73557;SDS011;61829;53.286;10.434;2023-04-07T12:53:38;4.53;;;2.67;;
73557;SDS011;61829;53.286;10.434;2023-04-07T12:56:04;6.80;;;2.65;;
73557;SDS011;61829;53.286;10.434;2023-04-07T12:58:30;4.95;;;2.97;;
73557;SDS011;61829;53.286;10.434;2023-04-07T13:00:56;6.15;;;2.83;;
73557;SDS011;61829;53.286;10.434;2023-04-07T13:03:22;4.13;;;2.38;;
73557;SDS011;61829;53.286;10.434;2023-04-07T13:05:48;3.83;;;2.38;;
73557;SDS011;61829;53.286;10.434;2023-04-07T13:08:14;4.85;;;2.55;;
73557;SDS011;61829;53.286;10.434;2023-04-07T13:10:40;4.97;;;2.40;;
73557;SDS011;61829;53.286;10.434;2023-04-07T13:13:08;4.22;;;2.38;;
73557;SDS011;61829;53.286;10.434;2023-04-07T13:15:33;4.72;;;2.35;;
73557;SDS011;61829;53.286;10.434;2023-04-07T13:17:59;5.38;;;2.85;;
73557;SDS011;61829;53.286;10.434;2023-04-07T13:20:25;4.60;;;2.20;;
73557;SDS011;61829;53.286;10.434;2023-04-07T13:25:18;4.07;;;2.22;;
73557;SDS011;61829;53.286;10.434;2023-04-07T13:27:44;4.50;;;2.50;;
73557;SDS011;61829;53.286;10.434;2023-04-07T13:30:12;6.68;;;2.50;;
73557;SDS011;61829;53.286;10.434;2023-04-07T13:32:38;4.68;;;2.08;;
73557;SDS011;61829;53.286;10.434;2023-04-07T13:35:04;3.67;;;1.80;;
73557;SDS011;61829;53.286;10.434;2023-04-07T13:37:30;2.97;;;1.70;;
73557;SDS011;61829;53.286;10.434;2023-04-07T13:39:56;4.18;;;1.85;;
73557;SDS011;61829;53.286;10.434;2023-04-07T13:42:22;3.53;;;1.77;;
73557;SDS011;61829;53.286;10.434;2023-04-07T13:44:47;4.30;;;2.10;;
73557;SDS011;61829;53.286;10.434;2023-04-07T13:47:16;2.63;;;1.42;;
73557;SDS011;61829;53.286;10.434;2023-04-07T13:49:48;3.80;;;1.60;;
73557;SDS011;61829;53.286;10.434;2023-04-07T13:52:17;2.92;;;1.60;;
73557;SDS011;61829;53.286;10.434;2023-04-07T13:54:43;3.45;;;1.60;;
73557;SDS011;61829;53.286;10.434;2023-04-07T13:57:10;3.88;;;1.77;;
73557;SDS011;61829;53.286;10.434;2023-04-07T13:59:37;2.38;;;1.50;;
73557;SDS011;61829;53.286;10.434;2023-04-07T14:02:04;2.60;;;1.50;;
73557;SDS011;61829;53.286;10.434;2023-04-07T14:04:30;2.83;;;1.40;;
73557;SDS011;61829;53.286;10.434;2023-04-07T14:09:42;2.83;;;1.40;;
73557;SDS011;61829;53.286;10.434;2023-04-07T14:12:08;4.20;;;1.63;;
73557;SDS011;61829;53.286;10.434;2023-04-07T14:14:34;3.30;;;1.27;;
73557;SDS011;61829;53.286;10.434;2023-04-07T14:17:02;3.85;;;1.50;;
73557;SDS011;61829;53.286;10.434;2023-04-07T14:19:29;2.75;;;1.50;;
73557;SDS011;61829;53.286;10.434;2023-04-07T14:21:59;5.13;;;1.77;;
73557;SDS011;61829;53.286;10.434;2023-04-07T14:24:25;5.38;;;1.63;;
73557;SDS011;61829;53.286;10.434;2023-04-07T14:26:51;5.18;;;1.65;;
73557;SDS011;61829;53.286;10.434;2023-04-07T14:29:19;4.47;;;1.65;;
73557;SDS011;61829;53.286;10.434;2023-04-07T14:31:45;3.25;;;1.70;;
73557;SDS011;61829;53.286;10.434;2023-04-07T14:34:15;3.25;;;1.50;;
73557;SDS011;61829;53.286;10.434;2023-04-07T14:36:55;3.13;;;1.80;;
73557;SDS011;61829;53.286;10.434;2023-04-07T14:39:23;2.30;;;1.23;;
73557;SDS011;61829;53.286;10.434;2023-04-07T14:41:50;3.08;;;1.65;;
73557;SDS011;61829;53.286;10.434;2023-04-07T14:44:16;2.78;;;1.75;;
73557;SDS011;61829;53.286;10.434;2023-04-07T14:46:42;4.47;;;1.85;;
73557;SDS011;61829;53.286;10.434;2023-04-07T14:49:08;3.28;;;1.85;;
73557;SDS011;61829;53.286;10.434;2023-04-07T14:55:34;3.35;;;2.10;;
73557;SDS011;61829;53.286;10.434;2023-04-07T14:58:01;3.47;;;1.70;;
73557;SDS011;61829;53.286;10.434;2023-04-07T15:00:26;4.10;;;2.00;;
73557;SDS011;61829;53.286;10.434;2023-04-07T15:02:53;2.58;;;1.70;;
73557;SDS011;61829;53.286;10.434;2023-04-07T15:05:20;3.63;;;2.00;;
73557;SDS011;61829;53.286;10.434;2023-04-07T15:07:50;3.50;;;1.80;;
73557;SDS011;61829;53.286;10.434;2023-04-07T15:10:16;5.22;;;2.03;;
73557;SDS011;61829;53.286;10.434;2023-04-07T15:12:43;3.28;;;2.00;;
73557;SDS011;61829;53.286;10.434;2023-04-07T15:15:11;4.40;;;2.03;;
73557;SDS011;61829;53.286;10.434;2023-04-07T15:20:11;3.65;;;1.80;;
73557;SDS011;61829;53.286;10.434;2023-04-07T15:22:37;3.70;;;1.92;;
73557;SDS011;61829;53.286;10.434;2023-04-07T15:25:06;2.92;;;1.77;;
73557;SDS011;61829;53.286;10.434;2023-04-07T15:27:33;5.10;;;2.00;;
73557;SDS011;61829;53.286;10.434;2023-04-07T15:29:58;2.72;;;1.80;;